createdAt,value
2019-03-17T00:02:33.076Z,1.60
2019-03-17T00:05:17.532Z,1.53
2019-03-17T00:08:12.114Z,4.87
2019-03-17T00:11:07.332Z,1.27
2019-03-17T00:13:46.588Z,3.47
2019-03-17T00:16:31.447Z,1.00
2019-03-17T00:20:11.316Z,1.37
2019-03-17T00:23:30.057Z,2.17
2019-03-17T00:26:34.067Z,1.10
2019-03-17T00:29:49.478Z,1.97
2019-03-17T00:32:46.515Z,1.60
2019-03-17T00:35:46.410Z,1.27
2019-03-17T00:38:36.966Z,3.83
2019-03-17T00:41:42.165Z,2.27
2019-03-17T00:44:40.194Z,1.50
2019-03-17T00:47:43.034Z,2.83
2019-03-17T00:51:03.702Z,1.33
2019-03-17T00:53:57.520Z,2.33
2019-03-17T00:57:09.637Z,1.47
2019-03-17T01:00:27.843Z,1.10
2019-03-17T01:03:34.901Z,1.60
2019-03-17T01:06:37.742Z,1.43
2019-03-17T01:09:26.120Z,3.10
2019-03-17T01:12:32.174Z,1.33
2019-03-17T01:15:51.036Z,2.53
2019-03-17T01:19:31.252Z,2.50
2019-03-17T01:26:35.575Z,2.03
2019-03-17T01:30:01.422Z,1.93
2019-03-17T01:36:51.357Z,3.63
2019-03-17T01:40:44.878Z,2.13
2019-03-17T01:43:44.743Z,2.17
2019-03-17T01:46:40.510Z,3.10
2019-03-17T01:49:43.963Z,3.03
2019-03-17T01:52:22.066Z,4.43
2019-03-17T01:55:19.512Z,4.97
2019-03-17T01:58:16.858Z,2.03
2019-03-17T02:01:33.348Z,1.40
2019-03-17T02:04:42.777Z,2.30
2019-03-17T02:07:45.937Z,1.50
2019-03-17T02:10:37.722Z,2.47
2019-03-17T02:13:54.477Z,2.30
2019-03-17T02:17:14.216Z,1.73
2019-03-17T02:20:04.906Z,2.27
2019-03-17T02:22:53.025Z,3.13
2019-03-17T02:25:42.290Z,5.20
2019-03-17T02:28:30.296Z,2.10
2019-03-17T02:31:13.263Z,2.00
2019-03-17T02:37:13.862Z,3.23
2019-03-17T02:40:01.461Z,2.60
2019-03-17T02:42:55.918Z,3.73
2019-03-17T02:45:55.235Z,3.03
2019-03-17T02:48:52.208Z,3.43
2019-03-17T02:51:47.427Z,1.17
2019-03-17T02:55:15.068Z,4.37
2019-03-17T02:58:18.103Z,4.80
2019-03-17T03:01:54.574Z,3.47
2019-03-17T03:04:39.999Z,2.83
2019-03-17T03:07:41.709Z,2.23
2019-03-17T03:10:42.319Z,2.90
2019-03-17T03:13:50.943Z,3.73
2019-03-17T03:16:43.700Z,4.80
2019-03-17T03:20:02.091Z,4.13
2019-03-17T03:26:39.505Z,4.37
2019-03-17T03:32:56.582Z,4.27
2019-03-17T03:35:50.945Z,3.10
2019-03-17T03:38:56.921Z,3.87
2019-03-17T03:42:12.838Z,2.37
2019-03-17T03:45:17.931Z,8.93
2019-03-17T03:48:15.438Z,4.53
2019-03-17T03:51:11.173Z,5.77
2019-03-17T03:54:17.230Z,3.10
2019-03-17T03:57:15.167Z,6.10
2019-03-17T04:00:13.104Z,3.80
2019-03-17T04:03:13.366Z,2.80
2019-03-17T04:06:25.227Z,2.47
2019-03-17T04:09:19.195Z,2.90
2019-03-17T04:12:14.015Z,3.90
2019-03-17T04:15:12.663Z,2.80
2019-03-17T04:18:13.013Z,8.53
2019-03-17T04:21:27.010Z,3.00
2019-03-17T04:24:14.600Z,2.57
2019-03-17T04:27:10.609Z,4.47
2019-03-17T04:30:19.192Z,8.33
2019-03-17T04:33:19.500Z,3.77
2019-03-17T04:36:40.393Z,8.07
2019-03-17T04:39:44.950Z,3.87
2019-03-17T04:42:45.519Z,4.67
2019-03-17T04:46:06.259Z,4.53
2019-03-17T04:49:05.004Z,6.03
2019-03-17T04:52:25.361Z,3.80
2019-03-17T04:58:56.113Z,5.33
2019-03-17T05:02:19.661Z,4.67
2019-03-17T05:05:44.579Z,5.37
2019-03-17T05:08:59.998Z,6.83
2019-03-17T05:12:20.541Z,7.00
2019-03-17T05:15:20.631Z,4.13
2019-03-17T05:18:40.687Z,5.13
2019-03-17T05:21:57.992Z,4.67
2019-03-17T05:25:05.557Z,3.00
2019-03-17T05:28:23.200Z,5.20
2019-03-17T05:34:39.328Z,6.17
2019-03-17T05:37:41.644Z,4.67
2019-03-17T05:40:58.331Z,5.70
2019-03-17T05:44:22.617Z,4.77
2019-03-17T05:47:32.526Z,4.67
2019-03-17T05:50:42.017Z,5.57
2019-03-17T05:53:34.028Z,6.67
2019-03-17T05:56:29.819Z,10.33
2019-03-17T05:59:37.213Z,8.27
2019-03-17T06:02:30.682Z,7.63
2019-03-17T06:05:44.666Z,5.20
2019-03-17T06:08:33.509Z,5.03
2019-03-17T06:11:27.858Z,5.60
2019-03-17T06:14:28.647Z,2.83
2019-03-17T06:17:30.792Z,7.40
2019-03-17T06:20:29.223Z,8.97
2019-03-17T06:23:31.051Z,6.30
2019-03-17T06:26:54.211Z,10.17
2019-03-17T06:29:59.624Z,5.23
2019-03-17T06:33:05.864Z,3.97
2019-03-17T06:36:48.698Z,6.40
2019-03-17T06:39:55.712Z,5.47
2019-03-17T06:43:37.933Z,6.40
2019-03-17T06:46:59.343Z,3.83
2019-03-17T06:50:12.761Z,4.97
2019-03-17T06:53:41.497Z,7.10
2019-03-17T06:56:44.127Z,6.00
2019-03-17T07:00:18.190Z,8.30
2019-03-17T07:04:18.741Z,8.53
2019-03-17T07:07:49.358Z,9.83
2019-03-17T07:14:38.547Z,8.07
2019-03-17T07:17:57.653Z,3.73
2019-03-17T07:21:03.664Z,6.23
2019-03-17T07:24:56.756Z,8.43
2019-03-17T07:28:21.471Z,7.10
2019-03-17T07:31:29.346Z,9.93
2019-03-17T07:34:21.442Z,7.23
2019-03-17T07:41:01.427Z,10.63
2019-03-17T07:44:06.841Z,18.60
2019-03-17T07:47:46.340Z,13.10
2019-03-17T07:52:07.242Z,13.63
2019-03-17T07:54:34.859Z,10.73
2019-03-17T07:58:04.940Z,17.20
2019-03-17T08:01:17.504Z,8.83
2019-03-17T08:04:42.047Z,5.57
2019-03-17T08:08:09.969Z,6.40
2019-03-17T08:11:24.281Z,8.97
2019-03-17T08:14:22.016Z,11.53
2019-03-17T08:17:33.939Z,7.63
2019-03-17T08:21:15.814Z,9.53
2019-03-17T08:31:32.710Z,6.57
2019-03-17T08:34:59.682Z,7.17
2019-03-17T08:46:08.914Z,8.73
2019-03-17T08:49:10.464Z,7.00
2019-03-17T08:52:12.108Z,7.73
2019-03-17T08:59:32.639Z,8.17
2019-03-17T09:06:28.981Z,6.00
2019-03-17T09:09:58.640Z,5.40
2019-03-17T09:13:05.794Z,4.63
2019-03-17T09:16:11.605Z,3.90
2019-03-17T09:19:43.300Z,2.07
2019-03-17T09:23:05.007Z,5.03
2019-03-17T09:26:15.168Z,4.53
2019-03-17T09:29:30.516Z,6.57
2019-03-17T09:32:25.792Z,2.90
2019-03-17T09:35:36.855Z,2.83
2019-03-17T09:45:46.953Z,6.77
2019-03-17T09:49:15.893Z,3.43
2019-03-17T09:52:27.352Z,5.60
2019-03-17T09:55:48.345Z,9.53
2019-03-17T09:59:06.853Z,4.50
2019-03-17T10:02:17.125Z,9.10
2019-03-17T10:05:02.635Z,14.23
2019-03-17T10:07:59.847Z,2.37
2019-03-17T10:11:03.943Z,4.23
2019-03-17T10:14:39.197Z,2.73
2019-03-17T10:17:34.592Z,4.87
2019-03-17T10:20:22.334Z,9.43
2019-03-17T10:23:22.284Z,2.30
2019-03-17T10:26:25.582Z,4.83
2019-03-17T10:33:45.721Z,0.97
2019-03-17T10:37:10.862Z,0.53
2019-03-17T10:45:00.833Z,0.43
2019-03-17T10:48:19.253Z,0.50
2019-03-17T10:51:51.862Z,0.67
2019-03-17T10:59:37.160Z,0.77
2019-03-17T11:03:24.002Z,3.00
2019-03-17T11:06:44.445Z,1.30
2019-03-17T11:10:28.279Z,0.37
2019-03-17T11:13:25.420Z,0.70
2019-03-17T11:16:40.272Z,0.80
2019-03-17T11:19:56.340Z,5.97
2019-03-17T11:23:06.459Z,2.13
2019-03-17T11:26:13.965Z,0.93
2019-03-17T11:33:03.951Z,0.67
2019-03-17T11:36:13.750Z,1.60
2019-03-17T11:38:56.608Z,1.03
2019-03-17T11:41:53.436Z,0.57
2019-03-17T11:45:26.364Z,0.33
2019-03-17T11:51:41.836Z,0.60
2019-03-17T11:54:16.858Z,0.73
2019-03-17T12:03:45.061Z,1.00
2019-03-17T12:06:43.831Z,0.70
2019-03-17T12:09:29.741Z,0.50
2019-03-17T12:12:30.281Z,0.93
2019-03-17T12:15:17.804Z,0.50
2019-03-17T12:18:06.733Z,8.10
2019-03-17T12:20:47.426Z,3.40
2019-03-17T12:23:46.925Z,2.07
2019-03-17T12:26:26.507Z,1.20
2019-03-17T12:29:16.184Z,0.67
2019-03-17T12:32:04.600Z,1.70
2019-03-17T12:34:36.790Z,3.10
2019-03-17T12:37:13.447Z,1.93
2019-03-17T12:40:04.053Z,0.63
2019-03-17T12:43:03.012Z,3.63
2019-03-17T12:45:56.024Z,2.37
2019-03-17T12:48:30.785Z,2.00
2019-03-17T12:51:05.120Z,2.17
2019-03-17T12:53:50.227Z,0.83
2019-03-17T12:56:40.303Z,0.50
2019-03-17T12:59:45.342Z,2.23
2019-03-17T13:02:43.214Z,0.73
2019-03-17T13:05:21.548Z,2.57
2019-03-17T13:08:09.717Z,1.60
2019-03-17T13:10:45.615Z,2.03
2019-03-17T13:13:29.606Z,0.40
2019-03-17T13:16:01.135Z,0.70
2019-03-17T13:18:32.237Z,0.83
2019-03-17T13:21:08.879Z,1.17
2019-03-17T13:23:41.720Z,2.73
2019-03-17T13:26:15.006Z,1.33
2019-03-17T13:28:50.694Z,1.33
2019-03-17T13:31:41.394Z,0.70
2019-03-17T13:34:16.240Z,1.80
2019-03-17T13:36:46.949Z,0.93
2019-03-17T13:39:18.714Z,2.53
2019-03-17T13:42:00.731Z,1.77
2019-03-17T13:44:39.826Z,2.10
2019-03-17T13:47:25.848Z,0.40
2019-03-17T13:49:58.914Z,3.90
2019-03-17T13:52:58.722Z,5.23
2019-03-17T13:55:59.443Z,0.40
2019-03-17T13:58:39.178Z,2.33
2019-03-17T14:01:22.924Z,1.17
2019-03-17T14:04:14.610Z,2.10
2019-03-17T14:06:46.610Z,2.53
2019-03-17T14:09:30.623Z,2.73
2019-03-17T14:12:06.980Z,0.97
2019-03-17T14:14:42.014Z,2.87
2019-03-17T14:17:23.281Z,0.87
2019-03-17T14:20:10.522Z,0.83
2019-03-17T14:22:46.467Z,5.73
2019-03-17T14:25:26.996Z,1.47
2019-03-17T14:28:10.115Z,0.80
2019-03-17T14:30:39.783Z,3.07
2019-03-17T14:33:09.059Z,1.27
2019-03-17T14:35:38.516Z,3.27
2019-03-17T14:38:07.842Z,2.07
2019-03-17T14:40:37.180Z,1.70
2019-03-17T14:43:06.622Z,1.70
2019-03-17T14:45:35.902Z,2.40
2019-03-17T14:48:07.866Z,2.50
2019-03-17T14:50:37.184Z,1.93
2019-03-17T14:53:09.870Z,1.47
2019-03-17T14:55:39.177Z,3.53
2019-03-17T14:58:10.900Z,4.43
2019-03-17T15:00:40.224Z,2.40
2019-03-17T15:03:10.385Z,1.57
2019-03-17T15:05:39.685Z,5.70
2019-03-17T15:08:09.027Z,3.67
2019-03-17T15:10:38.739Z,2.50
2019-03-17T15:13:08.127Z,1.10
2019-03-17T15:15:37.674Z,8.80
2019-03-17T15:18:07.376Z,3.10
2019-03-17T15:20:36.718Z,6.10
2019-03-17T15:23:06.057Z,2.27
2019-03-17T15:25:37.378Z,2.00
2019-03-17T15:28:06.688Z,2.93
2019-03-17T15:30:36.058Z,1.37
2019-03-17T15:33:06.316Z,4.00
2019-03-17T15:35:35.888Z,1.83
2019-03-17T15:38:05.338Z,1.47
2019-03-17T15:40:34.636Z,5.13
2019-03-17T15:43:04.281Z,5.53
2019-03-17T15:45:33.817Z,3.03
2019-03-17T15:48:04.352Z,4.70
2019-03-17T15:50:33.977Z,4.63
2019-03-17T15:53:03.326Z,2.83
2019-03-17T15:55:32.699Z,1.73
2019-03-17T15:58:02.367Z,3.67
2019-03-17T16:00:33.579Z,3.23
2019-03-17T16:03:03.092Z,2.13
2019-03-17T16:05:33.304Z,6.37
2019-03-17T16:08:03.220Z,1.37
2019-03-17T16:10:33.042Z,6.70
2019-03-17T16:13:02.651Z,7.40
2019-03-17T16:15:34.657Z,3.50
2019-03-17T16:18:04.294Z,1.10
2019-03-17T16:20:35.397Z,1.80
2019-03-17T16:23:05.078Z,2.23
2019-03-17T16:25:35.020Z,3.87
2019-03-17T16:28:05.314Z,2.47
2019-03-17T16:30:34.965Z,4.67
2019-03-17T16:33:04.619Z,2.50
2019-03-17T16:35:34.578Z,2.23
2019-03-17T16:38:04.053Z,2.10
2019-03-17T16:40:34.303Z,3.17
2019-03-17T16:43:06.190Z,1.13
2019-03-17T16:45:36.109Z,1.57
2019-03-17T16:48:07.982Z,2.60
2019-03-17T16:50:38.332Z,1.90
2019-03-17T16:53:08.347Z,2.73
2019-03-17T16:55:37.680Z,4.70
2019-03-17T16:58:09.174Z,3.07
2019-03-17T17:00:38.708Z,1.37
2019-03-17T17:03:09.162Z,1.80
2019-03-17T17:05:38.574Z,4.37
2019-03-17T17:08:08.487Z,1.50
2019-03-17T17:10:39.150Z,2.57
2019-03-17T17:13:08.840Z,4.67
2019-03-17T17:15:38.439Z,2.80
2019-03-17T17:18:07.806Z,1.00
2019-03-17T17:20:37.936Z,1.93
2019-03-17T17:23:09.346Z,3.07
2019-03-17T17:25:38.883Z,1.43
2019-03-17T17:28:09.543Z,2.40
2019-03-17T17:30:38.930Z,2.93
2019-03-17T17:33:08.234Z,1.23
2019-03-17T17:35:37.927Z,0.97
2019-03-17T17:38:07.296Z,1.10
2019-03-17T17:40:36.725Z,1.17
2019-03-17T17:43:06.786Z,2.17
2019-03-17T17:45:36.513Z,1.23
2019-03-17T17:48:06.381Z,2.57
2019-03-17T17:50:36.511Z,2.03
2019-03-17T17:53:06.531Z,3.33
2019-03-17T17:55:35.872Z,4.80
2019-03-17T17:58:08.176Z,0.60
2019-03-17T18:00:40.772Z,2.03
2019-03-17T18:03:21.252Z,5.10
2019-03-17T18:05:51.037Z,1.10
2019-03-17T18:08:20.470Z,4.13
2019-03-17T18:10:50.262Z,3.10
2019-03-17T18:13:20.032Z,3.60
2019-03-17T18:15:49.479Z,1.00
2019-03-17T18:18:19.311Z,1.53
2019-03-17T18:20:48.688Z,1.50
2019-03-17T18:23:18.590Z,3.73
2019-03-17T18:25:48.140Z,4.10
2019-03-17T18:28:17.734Z,6.30
2019-03-17T18:30:47.131Z,3.33
2019-03-17T18:33:16.912Z,1.63
2019-03-17T18:35:47.066Z,4.00
2019-03-17T18:38:17.216Z,3.37
2019-03-17T18:40:46.597Z,1.63
2019-03-17T18:43:17.762Z,2.33
2019-03-17T18:45:47.367Z,1.60
2019-03-17T18:48:16.838Z,2.43
2019-03-17T18:50:46.765Z,1.37
2019-03-17T18:53:16.999Z,3.40
2019-03-17T18:55:46.507Z,1.47
2019-03-17T18:58:16.235Z,4.30
2019-03-17T19:00:48.253Z,1.30
2019-03-17T19:03:18.686Z,1.03
2019-03-17T19:05:48.380Z,3.07
2019-03-17T19:08:17.722Z,1.27
2019-03-17T19:10:49.947Z,1.50
2019-03-17T19:13:20.170Z,1.30
2019-03-17T19:15:51.342Z,4.30
2019-03-17T19:18:21.120Z,2.57
2019-03-17T19:20:54.187Z,1.30
2019-03-17T19:23:23.512Z,2.17
2019-03-17T19:25:52.847Z,3.13
2019-03-17T19:28:22.358Z,2.23
2019-03-17T19:30:51.747Z,6.10
2019-03-17T19:33:24.568Z,2.90
2019-03-17T19:35:56.884Z,3.67
2019-03-17T19:38:26.335Z,3.13
2019-03-17T19:40:56.239Z,2.00
2019-03-17T19:43:27.517Z,2.43
2019-03-17T19:46:00.432Z,3.93
2019-03-17T19:48:29.891Z,5.60
2019-03-17T19:50:59.276Z,1.73
2019-03-17T19:53:28.840Z,1.80
2019-03-17T19:55:59.541Z,3.37
2019-03-17T19:58:30.297Z,2.40
2019-03-17T20:01:00.335Z,4.33
2019-03-17T20:03:32.798Z,2.00
2019-03-17T20:06:02.782Z,4.57
2019-03-17T20:08:33.595Z,4.93
2019-03-17T20:11:06.130Z,1.60
2019-03-17T20:13:35.546Z,2.00
2019-03-17T20:16:04.921Z,2.17
2019-03-17T20:18:37.548Z,3.73
2019-03-17T20:21:06.967Z,1.90
2019-03-17T20:23:36.377Z,4.30
2019-03-17T20:26:06.626Z,2.33
2019-03-17T20:28:36.013Z,1.90
2019-03-17T20:31:07.635Z,2.37
2019-03-17T20:33:37.072Z,2.37
2019-03-17T20:36:06.481Z,2.17
2019-03-17T20:38:39.731Z,1.60
2019-03-17T20:41:09.630Z,3.30
2019-03-17T20:43:48.721Z,2.00
2019-03-17T20:46:19.622Z,1.87
2019-03-17T20:48:51.903Z,6.83
2019-03-17T20:51:21.806Z,1.97
2019-03-17T20:53:53.791Z,2.30
2019-03-17T20:56:23.176Z,3.87
2019-03-17T20:58:55.043Z,0.70
2019-03-17T21:01:25.075Z,2.97
2019-03-17T21:03:55.554Z,1.00
2019-03-17T21:06:25.026Z,1.50
2019-03-17T21:08:55.413Z,2.90
2019-03-17T21:11:25.512Z,3.60
2019-03-17T21:13:54.824Z,2.10
2019-03-17T21:16:24.514Z,1.60
2019-03-17T21:18:56.793Z,2.13
2019-03-17T21:21:26.191Z,2.43
2019-03-17T21:23:58.526Z,2.17
2019-03-17T21:26:28.564Z,1.73
2019-03-17T21:28:58.184Z,1.20
2019-03-17T21:31:28.910Z,1.93
2019-03-17T21:34:01.580Z,3.47
2019-03-17T21:36:31.290Z,0.97
2019-03-17T21:39:00.901Z,1.63
2019-03-17T21:41:30.214Z,1.47
2019-03-17T21:44:00.038Z,1.13
2019-03-17T21:46:29.741Z,1.00
2019-03-17T21:49:02.300Z,1.37
2019-03-17T21:51:32.719Z,1.10
2019-03-17T21:54:02.042Z,0.90
2019-03-17T21:56:32.785Z,2.73
2019-03-17T21:59:02.508Z,2.07
2019-03-17T22:01:31.852Z,0.90
2019-03-17T22:04:01.505Z,1.10
2019-03-17T22:06:31.111Z,0.80
2019-03-17T22:09:01.046Z,1.17
2019-03-17T22:11:30.530Z,1.93
2019-03-17T22:14:11.630Z,2.57
2019-03-17T22:16:31.400Z,1.83
2019-03-17T22:19:00.925Z,4.60
2019-03-17T22:21:31.459Z,1.13
2019-03-17T22:24:01.407Z,0.70
2019-03-17T22:26:30.700Z,3.73
2019-03-17T22:29:00.728Z,1.77
2019-03-17T22:31:30.073Z,3.00
2019-03-17T22:33:59.624Z,2.50
2019-03-17T22:36:29.106Z,1.90
2019-03-17T22:38:58.543Z,2.90
2019-03-17T22:41:27.882Z,5.30
2019-03-17T22:43:57.542Z,0.93
2019-03-17T22:46:30.715Z,1.33
2019-03-17T22:49:01.368Z,2.20
2019-03-17T22:51:30.721Z,2.43
2019-03-17T22:54:00.380Z,2.60
2019-03-17T22:56:30.043Z,2.03
2019-03-17T22:58:59.320Z,1.10
2019-03-17T23:01:28.607Z,2.30
2019-03-17T23:03:58.258Z,1.73
2019-03-17T23:06:28.400Z,1.77
2019-03-17T23:08:57.793Z,1.87
2019-03-17T23:11:27.216Z,3.67
2019-03-17T23:13:56.528Z,2.93
2019-03-17T23:16:26.256Z,1.43
2019-03-17T23:18:55.564Z,6.00
2019-03-17T23:21:24.914Z,2.97
2019-03-17T23:23:54.204Z,1.83
2019-03-17T23:26:26.374Z,3.30
2019-03-17T23:28:56.044Z,1.23
2019-03-17T23:31:25.306Z,3.53
2019-03-17T23:33:54.654Z,4.30
2019-03-17T23:36:24.475Z,5.33
2019-03-17T23:38:53.784Z,7.60
2019-03-17T23:41:23.189Z,1.90
2019-03-17T23:43:53.594Z,2.73
2019-03-17T23:46:24.481Z,4.57
2019-03-17T23:48:53.758Z,5.03
2019-03-17T23:51:23.507Z,2.93
2019-03-17T23:53:52.837Z,2.03
2019-03-17T23:56:22.484Z,6.53
2019-03-17T23:58:52.076Z,9.57
